Time;durP1;ratioP1;P1;durP2;ratioP2;P2;SDS_P1;SDS_P2;PMS_P1;PMS_P2;Temp;Humidity;BMP_temperature;BMP_pressure;BME280_temperature;BME280_humidity;BME280_pressure;Samples;Min_cycle;Max_cycle;Signal;HPM_P1;HPM_P2
2021/09/17 00:01:41;;;;;;;6.70;5.00;;;17.50;99.90;;;;;;4977607;28;20474;-55
2021/09/17 00:04:08;;;;;;;4.47;3.53;;;17.30;99.90;;;;;;4973101;28;20771;-55
2021/09/17 00:06:35;;;;;;;4.00;3.53;;;17.20;99.90;;;;;;4979592;28;20415;-57
2021/09/17 00:09:03;;;;;;;3.83;3.53;;;17.10;99.90;;;;;;4977494;28;20478;-53
2021/09/17 00:11:30;;;;;;;3.53;3.23;;;16.90;99.90;;;;;;4978734;28;20509;-54
2021/09/17 00:13:58;;;;;;;3.90;3.50;;;16.70;99.90;;;;;;4975193;28;20504;-51
2021/09/17 00:16:25;;;;;;;4.60;3.37;;;16.50;99.90;;;;;;4980024;28;20407;-52
2021/09/17 00:18:53;;;;;;;3.17;2.87;;;16.40;99.90;;;;;;4982299;28;20406;-53
2021/09/17 00:21:20;;;;;;;4.80;4.30;;;16.30;99.90;;;;;;4978330;28;20487;-52
2021/09/17 00:23:47;;;;;;;4.57;3.87;;;16.40;99.90;;;;;;4982074;28;20637;-50
2021/09/17 00:26:14;;;;;;;2.60;2.40;;;16.40;99.90;;;;;;4983215;28;20456;-55
2021/09/17 00:28:42;;;;;;;2.90;2.70;;;16.30;99.90;;;;;;4983629;28;20409;-57
2021/09/17 00:31:09;;;;;;;3.23;2.83;;;16.20;99.90;;;;;;4981676;28;20457;-54
2021/09/17 00:33:36;;;;;;;2.90;2.70;;;16.20;99.90;;;;;;4977317;28;20455;-54
2021/09/17 00:36:03;;;;;;;3.50;2.77;;;16.20;99.90;;;;;;4979823;28;20473;-52
2021/09/17 00:38:30;;;;;;;3.83;3.53;;;16.40;99.90;;;;;;4977840;28;20492;-56
2021/09/17 00:40:57;;;;;;;3.23;2.80;;;16.30;99.90;;;;;;4972791;28;20532;-48
2021/09/17 00:43:24;;;;;;;4.00;3.53;;;16.20;99.90;;;;;;4978908;28;20445;-53
2021/09/17 00:45:52;;;;;;;3.30;3.00;;;16.10;99.90;;;;;;4981795;28;20416;-53
2021/09/17 00:48:19;;;;;;;3.80;3.50;;;16.10;99.90;;;;;;4978354;28;20434;-53
2021/09/17 00:50:46;;;;;;;3.67;3.33;;;16.30;99.90;;;;;;4978544;28;20747;-53
2021/09/17 00:53:13;;;;;;;4.27;2.40;;;16.20;99.90;;;;;;4979898;28;20498;-56
2021/09/17 00:55:41;;;;;;;4.30;3.87;;;16.20;99.90;;;;;;4972402;28;20470;-52
2021/09/17 00:58:08;;;;;;;3.40;3.20;;;16.10;99.90;;;;;;4977866;28;20421;-52
2021/09/17 01:00:35;;;;;;;4.47;4.17;;;16.20;99.90;;;;;;4982321;28;20739;-56
2021/09/17 01:03:02;;;;;;;3.30;2.83;;;16.10;99.90;;;;;;4979113;28;20445;-53
2021/09/17 01:05:30;;;;;;;3.70;3.43;;;16.20;99.90;;;;;;4981297;28;20324;-52
2021/09/17 01:07:57;;;;;;;6.05;2.95;;;16.20;99.90;;;;;;4974306;28;20873;-56
2021/09/17 01:10:24;;;;;;;3.50;3.10;;;16.20;99.90;;;;;;4982341;28;21107;-58
2021/09/17 01:12:51;;;;;;;3.37;3.07;;;16.20;99.90;;;;;;4979746;28;20863;-53
2021/09/17 01:15:19;;;;;;;3.70;3.40;;;16.20;99.90;;;;;;4990044;28;20434;-56
2021/09/17 01:17:46;;;;;;;3.77;3.00;;;16.20;99.90;;;;;;4989431;28;20472;-56
2021/09/17 01:20:20;;;;;;;2.93;2.70;;;16.10;99.90;;;;;;4976585;28;20412;-54
2021/09/17 01:22:49;;;;;;;4.33;3.93;;;16.00;99.90;;;;;;4977446;28;20481;-52
2021/09/17 01:25:19;;;;;;;3.35;2.47;;;16.00;99.90;;;;;;4981461;28;20454;-54
2021/09/17 01:27:48;;;;;;;4.30;3.90;;;16.10;99.90;;;;;;4981828;28;20462;-53
2021/09/17 01:30:17;;;;;;;4.03;3.67;;;16.10;99.90;;;;;;4980003;28;20555;-53
2021/09/17 01:32:44;;;;;;;3.73;3.43;;;16.10;99.90;;;;;;4980767;28;20475;-55
2021/09/17 01:35:14;;;;;;;3.50;3.20;;;16.30;99.90;;;;;;4981753;28;20448;-52
2021/09/17 01:37:42;;;;;;;4.27;3.97;;;16.40;99.90;;;;;;4977121;28;20439;-54
2021/09/17 01:40:11;;;;;;;4.20;3.33;;;16.20;99.90;;;;;;4971740;28;20419;-52
2021/09/17 01:42:38;;;;;;;6.33;3.73;;;16.00;99.90;;;;;;4981262;28;20228;-51
2021/09/17 01:45:07;;;;;;;3.67;3.27;;;15.90;99.90;;;;;;4980677;28;20717;-53
2021/09/17 01:47:34;;;;;;;3.80;3.43;;;15.90;99.90;;;;;;4978288;28;20461;-52
2021/09/17 01:50:02;;;;;;;5.43;4.40;;;15.80;99.90;;;;;;4980847;28;20596;-53
2021/09/17 01:52:29;;;;;;;10.00;3.70;;;15.80;99.90;;;;;;4978924;28;20693;-53
2021/09/17 01:54:57;;;;;;;3.65;3.35;;;15.80;99.90;;;;;;4976871;28;20429;-51
2021/09/17 01:57:25;;;;;;;3.50;2.90;;;15.70;99.90;;;;;;4974715;28;20395;-54
2021/09/17 01:59:52;;;;;;;3.53;3.08;;;15.70;99.90;;;;;;4977817;28;20439;-55
2021/09/17 02:02:19;;;;;;;3.33;3.00;;;15.60;99.90;;;;;;4968721;28;20294;-52
2021/09/17 02:04:47;;;;;;;4.07;3.67;;;15.50;99.90;;;;;;4981301;28;20235;-55
2021/09/17 02:07:14;;;;;;;3.25;2.95;;;15.60;99.90;;;;;;4971069;28;20518;-57
2021/09/17 02:09:41;;;;;;;4.30;3.90;;;15.40;99.90;;;;;;4979329;28;20272;-53
2021/09/17 02:12:09;;;;;;;3.42;3.13;;;15.10;99.90;;;;;;4973559;28;20609;-55
2021/09/17 02:14:38;;;;;;;3.45;3.15;;;15.00;99.90;;;;;;4975740;28;20403;-56
2021/09/17 02:17:06;;;;;;;3.90;3.50;;;15.00;99.90;;;;;;4975826;28;20223;-50
2021/09/17 02:19:33;;;;;;;3.78;3.42;;;14.90;99.90;;;;;;4974824;28;20203;-53
2021/09/17 02:22:01;;;;;;;8.45;4.22;;;15.00;99.90;;;;;;4980914;28;20554;-57
2021/09/17 02:24:28;;;;;;;4.28;3.95;;;14.90;99.90;;;;;;4980141;28;20257;-50
2021/09/17 02:26:55;;;;;;;2.95;2.67;;;14.70;99.90;;;;;;4980582;28;20207;-54
2021/09/17 02:29:22;;;;;;;4.28;3.70;;;14.70;99.90;;;;;;4975159;28;20211;-55
2021/09/17 02:31:49;;;;;;;3.30;3.00;;;14.70;99.90;;;;;;4980863;28;20251;-53
2021/09/17 02:34:16;;;;;;;2.88;2.63;;;14.70;99.90;;;;;;4981021;28;20253;-54
2021/09/17 02:36:44;;;;;;;3.72;3.30;;;14.80;99.90;;;;;;4979782;28;20202;-51
2021/09/17 02:39:13;;;;;;;3.35;3.05;;;15.00;99.90;;;;;;4977573;28;20237;-54
2021/09/17 02:41:43;;;;;;;4.05;3.05;;;15.00;99.90;;;;;;4975230;28;20544;-53
2021/09/17 02:44:10;;;;;;;4.38;3.97;;;15.10;99.90;;;;;;4978777;28;20468;-54
2021/09/17 02:46:38;;;;;;;3.63;3.33;;;15.20;99.90;;;;;;4975203;28;20561;-54
2021/09/17 02:49:05;;;;;;;4.07;3.25;;;15.10;99.90;;;;;;4978253;28;20206;-54
2021/09/17 02:51:32;;;;;;;2.92;2.70;;;15.10;99.90;;;;;;4973456;28;20223;-56
2021/09/17 02:54:00;;;;;;;4.60;4.15;;;15.20;99.90;;;;;;4977138;28;20226;-55
2021/09/17 02:56:28;;;;;;;5.90;5.38;;;15.20;99.90;;;;;;4977528;28;20318;-54
2021/09/17 02:58:55;;;;;;;4.60;4.20;;;15.00;99.90;;;;;;4973135;28;20207;-53
2021/09/17 03:01:22;;;;;;;3.15;2.85;;;15.10;99.90;;;;;;4978088;28;20309;-50
2021/09/17 03:03:49;;;;;;;4.35;3.33;;;15.00;99.90;;;;;;4979024;28;20425;-51
2021/09/17 03:06:17;;;;;;;7.32;5.00;;;15.00;99.90;;;;;;4978889;28;20249;-53
2021/09/17 03:08:44;;;;;;;5.05;3.70;;;15.10;99.90;;;;;;4975531;28;20215;-51
2021/09/17 03:11:11;;;;;;;4.20;3.90;;;15.10;99.90;;;;;;4970788;28;20435;-50
2021/09/17 03:13:38;;;;;;;5.63;4.60;;;15.00;99.90;;;;;;4972421;28;20238;-57
2021/09/17 03:16:06;;;;;;;3.97;3.38;;;15.20;99.90;;;;;;4978337;28;20201;-52
2021/09/17 03:18:34;;;;;;;4.75;4.32;;;15.30;99.90;;;;;;4975704;28;20261;-52
2021/09/17 03:21:01;;;;;;;5.68;5.13;;;15.40;99.90;;;;;;4978666;28;20223;-54
2021/09/17 03:23:29;;;;;;;7.20;4.32;;;15.40;99.90;;;;;;4977549;28;20202;-55
2021/09/17 03:25:56;;;;;;;5.80;5.28;;;15.40;99.90;;;;;;4969200;28;20573;-51
2021/09/17 03:28:24;;;;;;;4.82;4.07;;;15.20;99.90;;;;;;4976737;28;20470;-57
2021/09/17 03:30:51;;;;;;;5.40;4.40;;;15.10;99.90;;;;;;4969996;28;20240;-52
2021/09/17 03:33:18;;;;;;;5.18;4.38;;;15.00;99.90;;;;;;4978185;28;20457;-53
2021/09/17 03:35:45;;;;;;;5.82;4.25;;;15.00;99.90;;;;;;4975663;28;20266;-52
2021/09/17 03:38:13;;;;;;;3.95;3.63;;;15.10;99.90;;;;;;4980112;28;20508;-54
2021/09/17 03:40:40;;;;;;;4.35;3.95;;;15.00;99.90;;;;;;4979784;28;20418;-52
2021/09/17 03:43:08;;;;;;;5.40;3.90;;;14.90;99.90;;;;;;4972364;28;20442;-52
2021/09/17 03:45:36;;;;;;;5.60;5.05;;;15.00;99.90;;;;;;4975589;28;20207;-54
2021/09/17 03:48:05;;;;;;;4.28;3.88;;;15.00;99.90;;;;;;4977272;28;20214;-55
2021/09/17 03:50:32;;;;;;;3.90;3.47;;;15.00;99.90;;;;;;4978258;28;20241;-58
2021/09/17 03:53:00;;;;;;;5.85;3.78;;;15.00;99.90;;;;;;4978790;28;20334;-53
2021/09/17 03:55:27;;;;;;;3.65;3.13;;;15.00;99.90;;;;;;4979317;28;20253;-56
2021/09/17 03:57:55;;;;;;;5.43;4.25;;;14.90;99.90;;;;;;4971310;28;20203;-54
2021/09/17 04:00:22;;;;;;;6.40;4.82;;;15.00;99.90;;;;;;4969170;28;20199;-54
2021/09/17 04:02:49;;;;;;;4.20;3.75;;;14.90;99.90;;;;;;4973955;28;20242;-54
2021/09/17 04:05:17;;;;;;;4.43;4.05;;;14.80;99.90;;;;;;4979720;28;20584;-52
2021/09/17 04:07:44;;;;;;;2.75;2.53;;;14.90;99.90;;;;;;4973958;28;20277;-53
2021/09/17 04:10:13;;;;;;;3.80;3.50;;;14.90;99.90;;;;;;4966467;28;20255;-56
2021/09/17 04:12:42;;;;;;;3.17;2.88;;;14.70;99.90;;;;;;4968153;28;20228;-53
2021/09/17 04:15:10;;;;;;;4.55;4.10;;;14.70;99.90;;;;;;4972558;28;20223;-56
2021/09/17 04:17:37;;;;;;;3.55;3.03;;;14.60;99.90;;;;;;4978796;28;20210;-57
2021/09/17 04:20:06;;;;;;;4.10;3.70;;;14.60;99.90;;;;;;4977732;28;20386;-54
2021/09/17 04:22:33;;;;;;;3.80;3.33;;;14.50;99.90;;;;;;4980120;28;20538;-56
2021/09/17 04:25:01;;;;;;;4.18;3.65;;;14.50;99.90;;;;;;4977087;28;20220;-57
2021/09/17 04:27:28;;;;;;;5.03;3.15;;;14.50;99.90;;;;;;4973852;28;20202;-59
2021/09/17 04:29:55;;;;;;;9.18;4.60;;;14.40;99.90;;;;;;4970976;28;20510;-55
2021/09/17 04:32:22;;;;;;;4.13;3.75;;;14.40;99.90;;;;;;4973112;28;20222;-59
2021/09/17 04:34:50;;;;;;;4.50;3.17;;;14.40;99.90;;;;;;4978959;28;20207;-59
2021/09/17 04:37:17;;;;;;;3.15;2.45;;;14.40;99.90;;;;;;4970832;28;20310;-55
2021/09/17 04:39:45;;;;;;;4.10;3.70;;;14.50;99.90;;;;;;4974419;28;20400;-57
2021/09/17 04:42:12;;;;;;;4.70;4.07;;;14.50;99.90;;;;;;4979791;28;20266;-59
2021/09/17 04:44:39;;;;;;;5.15;3.90;;;14.60;99.90;;;;;;4978558;28;20214;-54
2021/09/17 04:47:07;;;;;;;2.88;2.67;;;14.80;99.90;;;;;;4973610;28;20207;-55
2021/09/17 04:49:34;;;;;;;4.50;2.92;;;14.70;99.90;;;;;;4974864;28;20258;-58
2021/09/17 04:52:01;;;;;;;5.75;2.90;;;14.90;99.90;;;;;;4970189;28;20222;-53
2021/09/17 04:54:29;;;;;;;4.30;3.83;;;14.70;99.90;;;;;;4970722;28;20234;-56
2021/09/17 04:56:56;;;;;;;7.07;3.55;;;14.80;99.90;;;;;;4971626;28;20199;-51
2021/09/17 04:59:24;;;;;;;2.53;2.25;;;14.70;99.90;;;;;;4968211;28;20199;-52
2021/09/17 05:01:51;;;;;;;4.90;3.00;;;14.80;99.90;;;;;;4969339;28;20230;-55
2021/09/17 05:04:18;;;;;;;5.47;3.35;;;14.80;99.90;;;;;;4975138;28;20380;-58
2021/09/17 05:06:45;;;;;;;5.10;3.75;;;14.90;99.90;;;;;;4974161;28;20206;-54
2021/09/17 05:09:13;;;;;;;3.83;3.50;;;15.00;99.90;;;;;;4976062;28;20226;-58
2021/09/17 05:11:40;;;;;;;5.22;4.63;;;15.00;99.90;;;;;;4974737;28;20241;-53
2021/09/17 05:14:07;;;;;;;5.05;4.55;;;15.00;99.90;;;;;;4972058;28;20223;-52
2021/09/17 05:16:34;;;;;;;4.55;3.00;;;15.10;99.90;;;;;;4983573;28;20264;-53
2021/09/17 05:19:02;;;;;;;5.00;3.72;;;15.20;99.90;;;;;;4976734;28;20353;-56
2021/09/17 05:21:30;;;;;;;3.67;3.38;;;15.30;99.90;;;;;;4969995;28;20231;-55
2021/09/17 05:23:57;;;;;;;4.30;3.90;;;15.40;99.90;;;;;;4968465;28;20395;-52
2021/09/17 05:26:24;;;;;;;4.32;2.55;;;15.50;99.90;;;;;;4970404;28;20203;-53
2021/09/17 05:28:51;;;;;;;3.45;3.15;;;15.60;99.90;;;;;;4968681;28;20216;-48
2021/09/17 05:31:19;;;;;;;3.25;2.95;;;15.70;99.90;;;;;;4969903;28;20225;-57
2021/09/17 05:33:46;;;;;;;4.78;4.25;;;15.80;99.90;;;;;;4977587;28;20341;-53
2021/09/17 05:36:13;;;;;;;4.30;3.90;;;15.90;99.90;;;;;;4976977;28;20208;-53
2021/09/17 05:38:40;;;;;;;3.90;3.17;;;15.90;99.90;;;;;;4978717;28;20208;-56
2021/09/17 05:41:08;;;;;;;4.50;3.00;;;15.90;99.90;;;;;;4974351;28;20646;-55
2021/09/17 05:43:35;;;;;;;4.00;3.23;;;15.90;99.90;;;;;;4966413;28;20443;-55
2021/09/17 05:46:03;;;;;;;4.27;3.20;;;16.10;99.90;;;;;;4966018;28;20525;-52
2021/09/17 05:48:30;;;;;;;4.23;3.83;;;16.10;99.90;;;;;;4966647;28;20446;-58
2021/09/17 05:50:57;;;;;;;4.97;3.87;;;16.20;99.90;;;;;;4966470;28;20496;-56
2021/09/17 05:53:24;;;;;;;4.13;3.40;;;16.20;99.90;;;;;;4974559;28;20534;-52
2021/09/17 05:55:52;;;;;;;4.20;3.73;;;16.20;99.90;;;;;;4976964;28;20433;-52
2021/09/17 05:58:19;;;;;;;3.20;2.87;;;16.20;99.90;;;;;;4971615;28;20641;-57
2021/09/17 06:00:47;;;;;;;4.67;4.27;;;16.30;99.90;;;;;;4973507;28;20498;-54
2021/09/17 06:03:14;;;;;;;4.50;4.10;;;16.30;99.90;;;;;;4974271;28;20517;-54
2021/09/17 06:05:41;;;;;;;5.07;4.57;;;16.30;99.90;;;;;;4980089;28;20418;-52
2021/09/17 06:08:08;;;;;;;3.50;3.00;;;16.40;99.90;;;;;;4972807;28;20416;-53
2021/09/17 06:10:35;;;;;;;3.87;2.80;;;16.40;99.90;;;;;;4969006;28;20430;-54
2021/09/17 06:13:02;;;;;;;3.73;3.43;;;16.50;99.90;;;;;;4974789;28;20850;-54
2021/09/17 06:15:29;;;;;;;3.60;2.97;;;16.50;99.90;;;;;;4977833;28;20435;-54
2021/09/17 06:17:56;;;;;;;4.93;3.83;;;16.60;99.90;;;;;;4979220;28;20486;-50
2021/09/17 06:20:24;;;;;;;3.00;2.70;;;16.70;99.90;;;;;;4978428;28;20443;-53
2021/09/17 06:22:55;;;;;;;4.70;4.30;;;16.80;99.90;;;;;;4973875;28;20439;-52
2021/09/17 06:25:23;;;;;;;4.17;3.80;;;16.70;99.90;;;;;;4980130;28;20411;-52
2021/09/17 06:27:51;;;;;;;4.27;3.80;;;16.80;99.90;;;;;;4985626;28;20456;-55
2021/09/17 06:30:20;;;;;;;3.83;3.53;;;16.80;99.90;;;;;;4980534;28;20475;-54
2021/09/17 06:32:47;;;;;;;3.10;2.90;;;16.80;99.90;;;;;;4972927;28;20513;-57
2021/09/17 06:35:15;;;;;;;3.80;3.40;;;16.80;99.90;;;;;;4978901;28;20447;-55
2021/09/17 06:37:48;;;;;;;3.43;3.10;;;16.70;99.90;;;;;;4981550;28;20773;-54
2021/09/17 06:40:16;;;;;;;5.13;3.63;;;16.60;99.90;;;;;;4974608;28;20481;-56
2021/09/17 06:42:44;;;;;;;5.87;3.73;;;16.70;99.90;;;;;;4974967;28;20668;-55
2021/09/17 06:45:11;;;;;;;4.97;4.50;;;16.70;99.90;;;;;;4973099;28;20425;-56
2021/09/17 06:47:46;;;;;;;3.33;3.00;;;16.80;99.90;;;;;;4972471;28;20447;-55
2021/09/17 06:50:15;;;;;;;3.57;3.23;;;16.80;99.90;;;;;;4970249;28;20456;-57
2021/09/17 06:52:47;;;;;;;3.63;3.33;;;17.00;99.90;;;;;;4977006;28;20487;-53
2021/09/17 06:55:20;;;;;;;4.17;3.77;;;17.10;99.90;;;;;;4975236;28;20479;-55
2021/09/17 06:57:49;;;;;;;4.27;3.87;;;17.10;99.90;;;;;;4979434;28;20501;-55
2021/09/17 07:00:17;;;;;;;4.63;3.70;;;17.10;99.90;;;;;;4964027;28;20428;-53
2021/09/17 07:02:45;;;;;;;6.43;4.43;;;17.20;99.90;;;;;;4961241;28;20439;-54
2021/09/17 07:05:13;;;;;;;4.50;4.07;;;17.20;99.90;;;;;;4980573;28;20415;-52
2021/09/17 07:07:41;;;;;;;5.03;4.57;;;17.10;99.90;;;;;;4976223;28;20510;-54
2021/09/17 07:10:10;;;;;;;6.00;5.00;;;17.10;99.90;;;;;;4978208;28;20641;-54
2021/09/17 07:12:37;;;;;;;5.90;4.47;;;17.20;99.90;;;;;;4972938;28;20698;-53
2021/09/17 07:15:06;;;;;;;5.60;5.10;;;17.20;99.90;;;;;;4976827;28;20456;-55
2021/09/17 07:17:33;;;;;;;5.57;4.70;;;17.20;99.90;;;;;;4971078;28;20451;-55
2021/09/17 07:20:00;;;;;;;6.00;4.83;;;17.10;99.90;;;;;;4980892;28;20444;-54
2021/09/17 07:22:28;;;;;;;5.93;4.60;;;17.10;99.90;;;;;;4970162;28;20875;-56
2021/09/17 07:24:55;;;;;;;4.43;4.10;;;17.20;99.90;;;;;;4968656;28;20816;-54
2021/09/17 07:27:23;;;;;;;7.60;4.30;;;17.30;99.90;;;;;;4974942;28;20476;-56
2021/09/17 07:29:50;;;;;;;3.97;3.67;;;17.40;99.90;;;;;;4974018;28;20484;-51
2021/09/17 07:32:18;;;;;;;5.13;4.00;;;17.50;99.90;;;;;;4978583;28;20455;-53
2021/09/17 07:34:45;;;;;;;4.10;3.43;;;17.50;99.90;;;;;;4975004;28;20476;-53
2021/09/17 07:37:13;;;;;;;4.80;4.13;;;17.40;99.90;;;;;;4976871;28;20534;-56
2021/09/17 07:39:41;;;;;;;4.63;4.23;;;17.20;99.90;;;;;;4966890;28;20418;-55
2021/09/17 07:42:08;;;;;;;3.87;3.57;;;17.20;99.90;;;;;;4976332;28;20782;-55
2021/09/17 07:44:36;;;;;;;4.00;3.63;;;17.30;99.90;;;;;;4975272;28;20838;-50
2021/09/17 07:47:07;;;;;;;4.13;3.70;;;17.40;99.90;;;;;;4977191;28;20471;-56
2021/09/17 07:49:35;;;;;;;3.53;3.23;;;17.60;99.90;;;;;;4976987;28;20764;-55
2021/09/17 07:52:02;;;;;;;3.63;3.33;;;17.90;99.90;;;;;;4977077;28;20492;-52
2021/09/17 07:54:30;;;;;;;2.80;2.60;;;17.80;99.90;;;;;;4980629;28;20458;-56
2021/09/17 07:56:57;;;;;;;4.40;4.00;;;17.90;99.90;;;;;;4983103;28;20642;-58
2021/09/17 07:59:26;;;;;;;4.53;4.10;;;17.80;99.90;;;;;;4980573;28;20712;-52
2021/09/17 08:01:53;;;;;;;5.17;3.23;;;17.90;99.90;;;;;;4973476;28;20634;-57
2021/09/17 08:04:21;;;;;;;4.80;4.40;;;18.10;99.90;;;;;;4969576;28;20457;-52
2021/09/17 08:06:49;;;;;;;3.83;3.40;;;18.10;99.90;;;;;;4978362;28;20420;-56
2021/09/17 08:09:16;;;;;;;3.90;3.50;;;18.00;99.90;;;;;;4973186;28;20436;-56
2021/09/17 08:11:43;;;;;;;4.80;3.53;;;18.00;99.90;;;;;;4970835;28;20664;-53
2021/09/17 08:14:11;;;;;;;6.30;3.97;;;17.90;99.90;;;;;;4975418;28;20648;-56
2021/09/17 08:16:38;;;;;;;4.20;3.90;;;17.90;99.90;;;;;;4973080;28;20463;-59
2021/09/17 08:19:06;;;;;;;3.23;2.90;;;17.90;99.90;;;;;;4979681;28;20464;-55
2021/09/17 08:21:36;;;;;;;3.03;2.83;;;18.00;99.90;;;;;;4979860;28;20466;-58
2021/09/17 08:24:04;;;;;;;2.87;2.67;;;18.10;99.90;;;;;;4970411;28;20483;-55
2021/09/17 08:26:31;;;;;;;2.93;2.70;;;18.40;99.90;;;;;;4975580;28;20621;-56
2021/09/17 08:29:01;;;;;;;2.80;2.60;;;18.90;99.90;;;;;;4971467;28;20456;-52
2021/09/17 08:31:29;;;;;;;3.00;2.80;;;19.20;99.90;;;;;;4975890;28;20553;-52
2021/09/17 08:33:56;;;;;;;5.90;3.27;;;19.50;99.90;;;;;;4972109;28;20453;-56
2021/09/17 08:36:23;;;;;;;3.73;3.43;;;19.50;99.90;;;;;;4979528;28;20748;-54
2021/09/17 08:38:51;;;;;;;3.80;2.73;;;19.70;99.90;;;;;;4975036;28;20749;-55
2021/09/17 08:41:18;;;;;;;2.53;2.40;;;19.80;99.90;;;;;;4975262;28;20794;-51
2021/09/17 08:43:46;;;;;;;5.43;2.97;;;19.90;99.90;;;;;;4983045;28;20808;-51
2021/09/17 08:46:14;;;;;;;3.00;2.80;;;19.70;99.90;;;;;;4973823;28;20423;-53
2021/09/17 08:48:42;;;;;;;2.87;2.60;;;19.70;99.90;;;;;;4978555;28;20782;-56
2021/09/17 08:51:11;;;;;;;2.40;2.20;;;19.90;99.90;;;;;;4978332;28;20695;-52
2021/09/17 08:53:38;;;;;;;6.03;3.00;;;20.10;99.90;;;;;;4974295;28;20550;-53
2021/09/17 08:56:07;;;;;;;3.57;3.13;;;20.30;99.90;;;;;;4980039;28;20444;-59
2021/09/17 08:58:35;;;;;;;3.27;2.97;;;20.50;99.90;;;;;;4972458;28;20502;-55
2021/09/17 09:01:02;;;;;;;2.77;2.57;;;20.50;99.90;;;;;;4973811;28;20457;-56
2021/09/17 09:03:32;;;;;;;3.80;3.60;;;20.70;99.90;;;;;;4972585;28;20452;-54
2021/09/17 09:06:14;;;;;;;3.27;2.83;;;20.80;99.90;;;;;;4971275;28;20420;-54
2021/09/17 09:08:42;;;;;;;2.70;2.50;;;20.50;99.90;;;;;;4971941;28;20509;-55
2021/09/17 09:11:25;;;;;;;2.50;2.30;;;20.50;99.90;;;;;;4968699;28;20560;-48
2021/09/17 09:14:00;;;;;;;3.00;2.77;;;20.70;99.90;;;;;;4981215;28;20572;-54
2021/09/17 09:16:28;;;;;;;2.43;2.33;;;20.70;99.90;;;;;;4982442;28;20480;-54
2021/09/17 09:18:56;;;;;;;3.83;3.63;;;20.60;99.90;;;;;;4983079;28;20494;-53
2021/09/17 09:21:30;;;;;;;2.90;2.70;;;20.60;99.90;;;;;;4982732;28;20641;-52
2021/09/17 09:24:13;;;;;;;3.07;2.80;;;20.80;99.90;;;;;;4980587;28;20451;-51
2021/09/17 09:26:40;;;;;;;2.00;1.90;;;20.80;99.90;;;;;;4972923;28;20415;-56
2021/09/17 09:29:28;;;;;;;2.93;2.63;;;20.90;99.90;;;;;;4979645;28;20602;-57
2021/09/17 09:31:56;;;;;;;2.30;2.10;;;21.30;99.90;;;;;;4978108;28;20666;-52
2021/09/17 09:34:48;;;;;;;2.40;2.20;;;21.30;99.90;;;;;;4980709;28;20511;-55
2021/09/17 09:37:18;;;;;;;2.30;2.10;;;21.50;99.90;;;;;;4978657;28;20420;-54
2021/09/17 09:39:49;;;;;;;3.23;2.80;;;21.30;99.90;;;;;;4982224;28;20455;-56
2021/09/17 09:42:29;;;;;;;3.00;2.80;;;21.60;99.90;;;;;;4979196;28;20454;-52
2021/09/17 09:45:25;;;;;;;3.00;2.80;;;21.40;99.90;;;;;;4971919;28;20427;-53
2021/09/17 09:47:55;;;;;;;3.10;2.90;;;21.10;99.90;;;;;;4981520;28;20450;-53
2021/09/17 09:50:24;;;;;;;2.60;2.50;;;21.20;99.90;;;;;;4974498;28;20503;-55
2021/09/17 09:52:53;;;;;;;2.60;2.50;;;21.20;99.90;;;;;;4981107;28;20436;-51
2021/09/17 09:55:20;;;;;;;2.20;2.10;;;21.30;99.90;;;;;;4969278;28;20452;-54
2021/09/17 09:57:48;;;;;;;2.20;2.10;;;21.30;99.90;;;;;;4980301;28;20586;-53
2021/09/17 10:00:16;;;;;;;2.53;2.43;;;21.20;99.90;;;;;;4981307;28;20407;-53
2021/09/17 10:02:45;;;;;;;2.50;2.30;;;20.70;99.90;;;;;;4988797;28;20443;-54
2021/09/17 10:05:16;;;;;;;2.37;2.17;;;20.70;99.90;;;;;;4980934;28;20444;-53
2021/09/17 10:07:45;;;;;;;2.10;2.00;;;20.70;99.90;;;;;;4975474;28;20483;-54
2021/09/17 10:10:15;;;;;;;2.00;1.90;;;20.80;99.90;;;;;;4978891;28;20439;-55
2021/09/17 10:12:45;;;;;;;2.40;2.30;;;21.10;99.90;;;;;;4974965;28;20917;-54
2021/09/17 10:15:13;;;;;;;1.90;1.80;;;21.20;99.90;;;;;;4977681;28;20514;-56
2021/09/17 10:17:50;;;;;;;2.13;2.03;;;21.30;99.90;;;;;;4980560;28;20503;-55
2021/09/17 10:20:17;;;;;;;2.03;1.93;;;21.30;99.90;;;;;;4977295;28;20444;-54
2021/09/17 10:22:44;;;;;;;2.30;2.20;;;21.40;99.90;;;;;;4970550;28;20803;-54
2021/09/17 10:25:22;;;;;;;2.00;1.90;;;21.40;99.90;;;;;;4977292;28;20672;-54
2021/09/17 10:28:15;;;;;;;2.30;1.80;;;21.40;99.90;;;;;;4971354;28;20604;-52
2021/09/17 10:30:43;;;;;;;1.87;1.77;;;21.60;99.90;;;;;;4977462;28;20441;-56
2021/09/17 10:33:28;;;;;;;2.40;2.20;;;21.70;99.90;;;;;;4974372;28;20420;-53
2021/09/17 10:35:56;;;;;;;2.53;2.43;;;21.60;99.90;;;;;;4977683;28;20478;-55
2021/09/17 10:38:27;;;;;;;1.70;1.60;;;21.50;99.90;;;;;;4981209;28;20415;-54
2021/09/17 10:40:59;;;;;;;2.13;2.03;;;21.60;99.90;;;;;;4970730;28;20469;-54
2021/09/17 10:43:40;;;;;;;2.17;1.90;;;21.70;99.90;;;;;;4979884;28;20405;-56
2021/09/17 10:46:22;;;;;;;1.77;1.67;;;21.50;99.90;;;;;;4972560;28;20581;-56
2021/09/17 10:48:56;;;;;;;1.97;1.87;;;21.60;99.90;;;;;;4977924;28;20416;-55
2021/09/17 10:51:40;;;;;;;1.80;1.70;;;21.60;99.90;;;;;;4980681;28;20478;-53
2021/09/17 10:54:10;;;;;;;1.77;1.70;;;21.50;99.90;;;;;;4978834;28;20560;-51
2021/09/17 10:56:46;;;;;;;2.00;1.90;;;21.40;99.90;;;;;;4971266;28;20680;-51
2021/09/17 10:59:15;;;;;;;2.10;2.00;;;21.40;99.90;;;;;;4978461;28;20525;-56
2021/09/17 11:01:54;;;;;;;2.20;2.10;;;20.90;99.90;;;;;;4975063;28;20804;-58
2021/09/17 11:04:29;;;;;;;2.30;2.20;;;20.40;99.90;;;;;;4973139;28;20487;-54
2021/09/17 11:07:19;;;;;;;2.10;2.00;;;20.10;99.90;;;;;;4978590;28;20698;-55
2021/09/17 11:09:49;;;;;;;2.00;1.90;;;20.00;99.90;;;;;;4971866;28;20431;-55
2021/09/17 11:12:24;;;;;;;1.97;1.87;;;19.70;99.90;;;;;;4971522;28;20446;-52
2021/09/17 11:15:01;;;;;;;2.00;1.90;;;19.50;99.90;;;;;;4980631;28;20482;-54
2021/09/17 11:17:40;;;;;;;2.03;1.90;;;19.50;99.90;;;;;;4979638;28;20428;-52
2021/09/17 11:20:15;;;;;;;1.97;1.87;;;19.50;99.90;;;;;;4979894;28;20586;-53
2021/09/17 11:22:52;;;;;;;2.23;2.07;;;19.40;99.90;;;;;;4979582;28;20443;-56
2021/09/17 11:25:27;;;;;;;1.70;1.60;;;19.30;99.90;;;;;;4980213;28;20576;-51
2021/09/17 11:27:54;;;;;;;2.50;2.40;;;18.90;99.90;;;;;;4980590;28;20623;-54
2021/09/17 11:30:28;;;;;;;1.90;1.80;;;18.60;99.90;;;;;;4978877;28;20553;-56
2021/09/17 11:32:55;;;;;;;2.13;1.93;;;18.40;99.90;;;;;;4980477;28;20474;-51
2021/09/17 11:35:23;;;;;;;2.33;1.97;;;18.30;99.90;;;;;;4980608;28;20483;-56
2021/09/17 11:38:01;;;;;;;2.27;2.17;;;18.10;99.90;;;;;;4977233;28;20439;-51
2021/09/17 11:40:29;;;;;;;1.67;1.57;;;17.90;99.90;;;;;;4972804;28;20739;-52
2021/09/17 11:42:57;;;;;;;1.93;1.83;;;18.00;99.90;;;;;;4979795;28;20410;-55
2021/09/17 11:45:26;;;;;;;2.77;2.33;;;18.00;99.90;;;;;;4980517;28;20649;-53
2021/09/17 11:47:56;;;;;;;2.57;2.37;;;18.20;99.90;;;;;;4978868;28;20747;-54
2021/09/17 11:50:28;;;;;;;2.60;2.40;;;18.30;99.90;;;;;;4974973;28;20448;-52
2021/09/17 11:52:55;;;;;;;2.00;1.90;;;18.70;99.90;;;;;;4980190;28;20471;-50
2021/09/17 11:55:26;;;;;;;2.47;2.37;;;18.90;99.90;;;;;;4979611;28;20483;-54
2021/09/17 11:57:56;;;;;;;2.27;2.17;;;18.90;99.90;;;;;;4977932;28;20440;-54
2021/09/17 12:00:27;;;;;;;2.57;2.37;;;19.00;99.90;;;;;;4972160;28;20487;-51
2021/09/17 12:02:56;;;;;;;2.37;2.27;;;19.00;99.90;;;;;;4971623;28;20474;-53
2021/09/17 12:05:27;;;;;;;2.10;2.00;;;19.00;99.90;;;;;;4976088;28;20505;-54
2021/09/17 12:07:54;;;;;;;2.77;2.53;;;18.90;99.90;;;;;;4973473;28;20470;-51
2021/09/17 12:10:28;;;;;;;2.60;2.40;;;19.10;99.90;;;;;;4976122;28;20471;-52
2021/09/17 12:13:04;;;;;;;1.97;1.87;;;19.20;99.90;;;;;;4974893;28;20488;-55
2021/09/17 12:15:40;;;;;;;2.30;2.20;;;19.50;99.90;;;;;;4979078;28;20726;-56
2021/09/17 12:18:20;;;;;;;1.67;1.57;;;19.80;99.90;;;;;;4978656;28;20484;-51
2021/09/17 12:20:51;;;;;;;1.90;1.80;;;19.90;99.90;;;;;;4974167;28;20441;-55
2021/09/17 12:23:32;;;;;;;1.37;1.37;;;19.90;99.90;;;;;;4970927;28;20411;-56
2021/09/17 12:26:26;;;;;;;1.93;1.83;;;19.90;99.90;;;;;;4971899;28;20454;-53
2021/09/17 12:28:54;;;;;;;1.50;1.43;;;19.70;99.90;;;;;;4956098;28;20502;-53
2021/09/17 12:31:33;;;;;;;1.80;1.70;;;19.30;99.90;;;;;;4971558;28;20816;-54
2021/09/17 12:34:08;;;;;;;1.50;1.40;;;18.80;99.90;;;;;;4972053;28;20556;-56
2021/09/17 12:36:37;;;;;;;2.40;1.90;;;18.60;99.90;;;;;;4976054;28;20469;-52
2021/09/17 12:39:06;;;;;;;2.50;2.30;;;18.30;99.90;;;;;;4972223;28;20621;-55
2021/09/17 12:41:35;;;;;;;1.67;1.57;;;18.10;99.90;;;;;;4970797;28;20789;-54
2021/09/17 12:44:12;;;;;;;1.80;1.70;;;17.80;99.90;;;;;;4973900;28;20512;-54
2021/09/17 12:46:42;;;;;;;2.10;1.90;;;17.20;99.90;;;;;;4972171;28;20426;-52
2021/09/17 12:49:13;;;;;;;1.97;1.87;;;16.80;99.90;;;;;;4978901;28;20497;-52
2021/09/17 12:51:40;;;;;;;1.30;1.20;;;16.60;99.90;;;;;;4973740;28;20689;-55
2021/09/17 12:54:11;;;;;;;1.63;1.53;;;16.60;99.90;;;;;;4977665;28;20643;-52
2021/09/17 12:56:39;;;;;;;1.40;1.30;;;16.70;99.90;;;;;;4973561;28;20531;-52
2021/09/17 12:59:13;;;;;;;1.60;1.50;;;16.60;99.90;;;;;;4976149;28;20440;-53